• Join FlightAware (Why Join?)
  • Login
  • US Flag 
09:12PM EDT


 

Airport Tracker/Info


-or-


 

Live Flight TrackerFlight Track Log ✈ UAL4536 ✈ 18-Apr-2013 ✈ KIAH - KCLT

Flight Track Log - Related Links

Times and Time Zones

All times are in EDT time to prevent confusion due to time zone crossing. See the UAL4536 flight status page for this flight to view local times or setup timezone preferences in your user account.

Time Position Orientation Groundspeed Altitude Reporting Facility
EDT Latitude Longitude Course Direction KTS MPH feet Rate Location/Type
04:34PM 29.9764 -95.3417 90° East 189 217 800  Level Houston Center
04:36PM 29.9250 -95.3311 170° South 239 275 2,700 1,560 Climbing Houston Center
04:37PM 29.9834 -94.9125 90° East  Level FlightAware Approximate
04:37PM 29.9094 -95.2533 103° East 260 299 4,200  Level Houston Center
04:38PM 29.9834 -94.7723 90° East  Level FlightAware Approximate
04:38PM 29.9292 -95.1714 74° East 280 322 5,900  Level Houston Center
04:39PM 29.9833 -94.6320 90° East  Level FlightAware Approximate
04:39PM 29.8850 -95.1047 127° Southeast 268 308 8,000  Level Houston Center
04:39PM 29.8822 -95.1003 126° Southeast 269 310 8,100 1,920 Climbing Houston Center
04:40PM 29.9834 -94.4918 90° East  Level FlightAware Approximate
04:40PM 29.8683 -95.0150 101° East 309 356 10,000  Level Houston Center
04:40PM 29.8725 -94.9925 78° East 298 343 10,400 1,140 Climbing Houston Center
04:41PM 29.8897 -94.8922 79° East 315 362 11,500 780 Climbing Houston Center
04:42PM 29.9111 -94.7778 78° East 360 414 12,100 780 Climbing Houston Center
04:43PM 29.9319 -94.6572 79° East 381 438 13,200 900 Climbing Houston Center
04:44PM 29.9556 -94.5350 77° East 388 447 14,100 900 Climbing Houston Center
04:45PM 29.9761 -94.4086 79° East 399 459 15,100 1,140 Climbing Houston Center
04:46PM 30.0022 -94.2542 79° East 409 471 16,500 1,200 Climbing Houston Center
04:47PM 30.0175 -94.1256 82° East 408 470 17,700 1,200 Climbing Houston Center
04:48PM 30.0347 -93.9944 81° East 414 476 19,100 1,200 Climbing Houston Center
04:49PM 30.0506 -93.8619 82° East 420 483 20,200 960 Climbing Houston Center
04:50PM 30.0667 -93.7261 82° East 429 494 21,100 900 Climbing Houston Center
04:51PM 30.0856 -93.5889 81° East 435 501 22,100 960 Climbing Houston Center
04:52PM 30.1219 -93.4394 74° East 443 510 23,100 960 Climbing Houston Center
04:53PM 30.1528 -93.3025 75° East 443 510 24,100 1,140 Climbing Houston Center
04:54PM 30.1836 -93.1347 78° East 446 513 25,500 1,500 Climbing Houston Center
04:55PM 30.2242 -93.0086 70° East 433 498 27,200 1,260 Climbing Houston Center
04:56PM 30.2861 -92.8936 58° Northeast 424 488 28,200 1,020 Climbing Houston Center
04:57PM 30.3481 -92.7769 58° Northeast 426 490 29,400 1,020 Climbing Houston Center
04:59PM 30.4097 -92.6614 58° Northeast 425 489 30,400 1,080 Climbing Houston Center
05:00PM 30.4864 -92.5214 58° Northeast 432 497 31,700 1,080 Climbing Houston Center
05:01PM 30.5486 -92.4033 59° Northeast 432 497 32,700 960 Climbing Houston Center
05:02PM 30.6111 -92.2847 59° Northeast 434 499 33,700 900 Climbing Houston Center
05:03PM 30.6753 -92.1642 58° Northeast 440 506 34,600 600 Climbing Houston Center
05:04PM 30.7403 -92.0417 58° Northeast 446 513 35,000 180 Climbing Houston Center
05:05PM 30.8214 -91.8872 59° Northeast 467 537 35,000  Level Houston Center
05:06PM 30.8928 -91.7503 59° Northeast 491 565 35,000  Level Houston Center
05:07PM 30.9669 -91.6097 58° Northeast 504 580 35,000  Level Houston Center
05:08PM 31.0411 -91.4686 58° Northeast 510 587 35,000  Level Houston Center
05:09PM 31.1244 -91.3086 59° Northeast 508 585 35,000  Level Houston Center
05:10PM 31.1972 -91.1692 59° Northeast 504 580 35,000 300 Level Houston Center
05:11PM 31.2669 -91.0328 59° Northeast 494 568 35,700 900 Climbing Houston Center
05:12PM 31.3333 -90.9028 59° Northeast 473 544 36,900 600 Climbing Houston Center
05:13PM 31.4003 -90.7714 59° Northeast 469 540 37,000  Climbing Houston Center
05:14PM 31.4697 -90.6339 59° Northeast 484 557 37,000  Level Houston Center
05:15PM 31.5572 -90.4647 59° Northeast 502 578 37,000  Level Houston Center
05:16PM 31.6278 -90.3236 60° Northeast 502 578 37,000  Level Houston Center
05:17PM 31.7003 -90.1811 59° Northeast 504 580 37,000  Level Houston Center
05:18PM 31.7281 -90.1231 61° Northeast 501 577 37,000  Level Memphis Center
05:19PM 31.7967 -89.9833 60° Northeast 501 577 37,000  Level Memphis Center
05:20PM 31.8692 -89.8436 59° Northeast 496 571 37,000  Level Memphis Center
05:21PM 31.9456 -89.6867 60° Northeast 496 571 37,000  Level Memphis Center
05:22PM 32.0158 -89.5489 59° Northeast 496 571 37,000  Level Memphis Center
05:23PM 32.0836 -89.4086 60° Northeast 491 565 37,000  Level Memphis Center
05:24PM 32.1514 -89.2703 60° Northeast 491 565 37,000  Level Memphis Center
05:25PM 32.2211 -89.1294 60° Northeast 491 565 37,000  Level Memphis Center
05:26PM 32.2906 -88.9886 60° Northeast 491 565 37,000  Level Memphis Center
05:27PM 32.3558 -88.8522 60° Northeast 491 565 37,000  Level Memphis Center
05:28PM 32.4208 -88.7133 61° Northeast 485 558 37,000  Level Memphis Center
05:29PM 32.4858 -88.5767 61° Northeast 480 552 37,000  Level Memphis Center
05:30PM 32.5528 -88.4372 60° Northeast 475 547 37,000  Level Memphis Center
05:32PM 32.6975 -88.1264 61° Northeast 485 558 37,000  Level Atlanta Center
05:33PM 32.7625 -87.9836 62° Northeast 485 558 37,000  Level Atlanta Center
05:34PM 32.8233 -87.8453 62° Northeast 485 558 37,000  Level Atlanta Center
05:35PM 32.8903 -87.7050 60° Northeast 485 558 37,000  Level Atlanta Center
05:36PM 32.9506 -87.5664 63° Northeast 480 552 37,000  Level Atlanta Center
05:37PM 32.9964 -87.4219 69° East 475 547 37,000  Level Atlanta Center
05:38PM 33.0325 -87.2475 76° East 487 560 37,000  Level Atlanta Center
05:39PM 33.0675 -87.0925 75° East 487 560 37,000  Level Atlanta Center
05:40PM 33.1022 -86.9550 73° East 481 554 37,000  Level Atlanta Center
05:41PM 33.1350 -86.8022 76° East 481 554 37,000  Level Atlanta Center
05:42PM 33.1697 -86.6469 75° East 476 548 37,000  Level Atlanta Center
05:43PM 33.2022 -86.4892 76° East 476 548 37,000  Level Atlanta Center
05:44PM 33.2364 -86.3436 74° East 470 541 37,000  Level Atlanta Center
05:45PM 33.2683 -86.1853 76° East 476 548 37,000  Level Atlanta Center
05:46PM 33.3025 -86.0247 76° East 476 548 37,000  Level Atlanta Center
05:47PM 33.3339 -85.8714 76° East 476 548 37,000  Level Atlanta Center
05:48PM 33.3697 -85.7053 75° East 464 534 37,000  Level Atlanta Center
05:49PM 33.4031 -85.5442 76° East 476 548 37,000  Level Atlanta Center
05:50PM 33.4361 -85.3906 76° East 476 548 37,000  Level Atlanta Center
05:51PM 33.4669 -85.2367 76° East 481 554 37,000  Level Atlanta Center
05:52PM 33.4978 -85.0800 77° East 481 554 37,000  Level Atlanta Center
05:53PM 33.5303 -84.9261 76° East 481 554 37,000  Level Atlanta Center
05:54PM 33.5625 -84.7667 76° East 481 554 37,000 -780 Level Atlanta Center
05:55PM 33.5925 -84.6100 77° East 481 554 35,500 -1,020 Descending Atlanta Center
05:56PM 33.6203 -84.4553 78° East 481 554 35,000 -300 Descending Atlanta Center
05:57PM 33.6644 -84.3033 71° East 476 548 35,000  Level Atlanta Center
05:58PM 33.7086 -84.1461 71° East 488 562 35,000  Level Atlanta Center
05:59PM 33.7525 -83.9939 71° East 488 562 35,000  Level Atlanta Center
06:00PM 33.7961 -83.8364 72° East 483 556 35,000  Level Atlanta Center
06:01PM 33.8397 -83.6811 71° East 483 556 35,000 -600 Level Atlanta Center
06:02PM 33.8808 -83.5333 71° East 477 549 33,800 -1,620 Descending Atlanta Center
06:03PM 33.9197 -83.3931 71° East 446 513 31,800 -1,980 Descending Atlanta Center
06:04PM 33.9586 -83.2475 72° East 446 513 29,900 -1,800 Descending Atlanta Center
06:05PM 33.9953 -83.1192 71° East 446 513 28,200 -1,860 Descending Atlanta Center
06:06PM 34.0381 -82.9708 71° East 459 528 26,200 -2,040 Descending Atlanta Center
06:07PM 34.1014 -82.8322 61° Northeast 465 535 24,200 -1,140 Descending Atlanta Center
06:08PM 34.1689 -82.7006 58° Northeast 465 535 24,000 -120 Descending Atlanta Center
06:09PM 34.2422 -82.5536 59° Northeast 460 529 24,000  Level Atlanta Center
06:10PM 34.3075 -82.4142 60° Northeast 460 529 24,000  Level Atlanta Center
06:11PM 34.3744 -82.2794 59° Northeast 460 529 24,000 -480 Level Atlanta Center
06:12PM 34.4392 -82.1472 59° Northeast 460 529 23,100 -1,680 Descending Atlanta Center
06:13PM 34.5039 -82.0147 59° Northeast 455 524 20,700 -2,520 Descending Atlanta Center
06:14PM 34.5664 -81.8872 59° Northeast 448 516 18,100 -2,580 Descending Atlanta Center
06:15PM 34.6247 -81.7669 59° Northeast 437 503 15,600 -2,340 Descending Atlanta Center
06:16PM 34.6711 -81.6747 59° Northeast 387 445 13,500 -1,800 Descending Atlanta Center
06:17PM 34.7172 -81.5800 59° Northeast 336 387 12,000 -1,200 Descending Atlanta Center
06:17PM 34.7331 -81.5467 60° Northeast 306 352 12,000  Level Atlanta Center
06:18PM 34.7778 -81.4872 48° Northeast 317 365 12,000 -540 Level Atlanta Center
06:18PM 34.8022 -81.4536 48° Northeast 322 371 11,400 -1,500 Descending Atlanta Center
06:19PM 34.8408 -81.4067 45° Northeast 317 365 10,500 -1,440 Descending Atlanta Center
06:19PM 34.8550 -81.3886 46° Northeast 326 375 10,100 -540 Descending Atlanta Center
06:20PM 34.8997 -81.3314 46° Northeast 307 353 10,000 -120 Descending Atlanta Center
06:20PM 34.9200 -81.3056 46° Northeast 315 362 10,000  Level Atlanta Center
06:21PM 34.9625 -81.2508 47° Northeast 307 353 10,000  Level Atlanta Center
06:21PM 34.9828 -81.2247 47° Northeast 325 374 10,000  Level Atlanta Center
06:22PM 35.0233 -81.1703 48° Northeast 312 359 10,000  Level Atlanta Center
06:22PM 35.0436 -81.1442 47° Northeast 324 373 10,000  Level Atlanta Center
06:23PM 35.0625 -81.1178 49° Northeast 319 367 10,000  Level FAA TRACON SMA TRACON (SMA)
06:23PM 35.0808 -81.0942 47° Northeast 316 364 10,000  Level FAA TRACON SMA TRACON (SMA)
06:23PM 35.1008 -81.0775 34° Northeast 282 325 10,000 -480 Level FAA TRACON SMA TRACON (SMA)
06:24PM 35.1286 -81.0653 20° North 268 308 9,700 -900 Descending FAA TRACON SMA TRACON (SMA)
06:24PM 35.1517 -81.0636 North 273 314 9,400 -900 Descending FAA TRACON SMA TRACON (SMA)
06:24PM 35.1747 -81.0658 355° North 262 302 9,100 -1,200 Descending FAA TRACON SMA TRACON (SMA)
06:25PM 35.2039 -81.0681 356° North 264 304 8,600 -1,680 Descending FAA TRACON SMA TRACON (SMA)
06:25PM 35.2264 -81.0703 355° North 264 304 8,000 -1,680 Descending FAA TRACON SMA TRACON (SMA)
06:25PM 35.2492 -81.0722 356° North 262 302 7,500 -1,800 Descending FAA TRACON SMA TRACON (SMA)
06:26PM 35.2772 -81.0742 357° North 260 299 6,800 -1,980 Descending FAA TRACON SMA TRACON (SMA)
06:26PM 35.2994 -81.0758 356° North 260 299 6,200 -1,800 Descending FAA TRACON SMA TRACON (SMA)
06:26PM 35.3217 -81.0781 355° North 257 296 5,600 -1,800 Descending FAA TRACON SMA TRACON (SMA)
06:27PM 35.3489 -81.0806 356° North 255 293 5,000 -1,500 Descending FAA TRACON SMA TRACON (SMA)
06:27PM 35.3697 -81.0822 356° North 248 285 4,600 -1,320 Descending FAA TRACON SMA TRACON (SMA)
06:27PM 35.3867 -81.0731 24° Northeast 206 237 4,100 -1,500 Descending FAA TRACON SMA TRACON (SMA)
06:28PM 35.3950 -81.0481 68° East 196 226 3,600 -1,440 Descending FAA TRACON SMA TRACON (SMA)
06:28PM 35.3989 -81.0272 77° East 201 231 3,200 -960 Descending FAA TRACON SMA TRACON (SMA)
06:28PM 35.3944 -81.0106 108° East 171 197 3,000 -300 Descending FAA TRACON SMA TRACON (SMA)
06:29PM 35.3811 -80.9972 141° Southeast 164 189 3,000  Level FAA TRACON SMA TRACON (SMA)
06:29PM 35.3706 -80.9864 140° Southeast 165 190 3,000  Level FAA TRACON SMA TRACON (SMA)
06:29PM 35.3581 -80.9800 157° South 179 206 3,000 -180 Level FAA TRACON SMA TRACON (SMA)
06:30PM 35.3411 -80.9783 175° South 163 188 2,900 -480 Descending FAA TRACON SMA TRACON (SMA)
06:30PM 35.3278 -80.9767 174° South 154 177 2,700 -600 Descending FAA TRACON SMA TRACON (SMA)